Time;durP1;ratioP1;P1;durP2;ratioP2;P2;SDS_P1;SDS_P2;PMS_P1;PMS_P2;Temp;Humidity;BMP_temperature;BMP_pressure;BME280_temperature;BME280_humidity;BME280_pressure;Samples;Min_cycle;Max_cycle;Signal;HPM_P1;HPM_P2
2022/07/05 00:01:24;;;;;;;;;;;;;;;27.01;81.53;98002.91;5124395;28;19959;-60
2022/07/05 00:03:50;;;;;;;;;;;;;;;26.92;83.30;98003.16;5122556;28;19931;-61
2022/07/05 00:06:17;;;;;;;;;;;;;;;26.89;84.94;98003.09;5120686;28;19924;-60
2022/07/05 00:08:43;;;;;;;;;;;;;;;27.05;84.60;98011.97;5121226;28;19924;-59
2022/07/05 00:11:09;;;;;;;;;;;;;;;27.02;85.93;98002.50;5124107;28;19923;-60
2022/07/05 00:13:37;;;;;;;;;;;;;;;27.07;86.43;98007.69;5124064;28;19927;-60
2022/07/05 00:16:04;;;;;;;;;;;;;;;27.00;87.58;98004.84;5120990;28;20395;-61
2022/07/05 00:18:30;;;;;;;;;;;;;;;27.03;88.61;97998.63;5120723;28;19928;-61
2022/07/05 00:20:56;;;;;;;;;;;;;;;26.96;89.36;98003.19;5133055;27;19967;-61
2022/07/05 00:23:23;;;;;;;;;;;;;;;26.88;90.72;97996.03;5124091;28;19930;-60
2022/07/05 00:25:49;;;;;;;;;;;;;;;26.83;92.14;97999.88;5122339;28;19924;-60
2022/07/05 00:28:16;;;;;;;;;;;;;;;26.73;93.44;97995.00;5120299;28;19924;-60
2022/07/05 00:30:43;;;;;;;;;;;;;;;26.92;92.15;98002.38;5120703;28;20027;-60
2022/07/05 00:33:10;;;;;;;;;;;;;;;26.88;93.21;97993.28;5105593;28;20414;-60
2022/07/05 00:35:36;;;;;;;;;;;;;;;26.92;92.97;97996.88;5123750;28;19959;-59
2022/07/05 00:38:02;;;;;;;;;;;;;;;26.86;93.53;97982.72;5120436;28;20159;-61
2022/07/05 00:40:29;;;;;;;;;;;;;;;26.99;93.11;97988.75;5120330;28;19931;-61
2022/07/05 00:42:55;;;;;;;;;;;;;;;26.95;92.22;97988.72;5122298;28;19931;-60
2022/07/05 00:45:21;;;;;;;;;;;;;;;27.03;92.41;97986.88;5123529;28;19928;-60
2022/07/05 00:47:49;;;;;;;;;;;;;;;27.08;93.10;97978.34;5122175;28;19935;-60
2022/07/05 00:50:15;;;;;;;;;;;;;;;27.19;92.29;97987.50;5123396;27;19935;-61
2022/07/05 00:52:42;;;;;;;;;;;;;;;27.07;93.72;97982.25;5126265;27;19928;-61
2022/07/05 00:55:09;;;;;;;;;;;;;;;27.06;93.37;97980.66;5123412;28;19928;-61
2022/07/05 00:57:35;;;;;;;;;;;;;;;27.05;93.74;97990.03;5123540;28;19940;-60
2022/07/05 01:00:02;;;;;;;;;;;;;;;27.08;93.77;97981.09;5120059;28;19931;-60
2022/07/05 01:02:28;;;;;;;;;;;;;;;27.16;92.81;97991.78;5119944;28;19924;-61
2022/07/05 01:04:56;;;;;;;;;;;;;;;27.08;93.54;97987.34;5121851;28;19924;-60
2022/07/05 01:07:23;;;;;;;;;;;;;;;27.03;94.06;97995.09;5123030;28;19920;-61
2022/07/05 01:09:50;;;;;;;;;;;;;;;27.08;93.63;97998.28;5121525;28;19923;-61
2022/07/05 01:12:17;;;;;;;;;;;;;;;27.06;94.53;97994.34;5119471;28;19932;-61
2022/07/05 01:14:43;;;;;;;;;;;;;;;27.13;93.89;97994.47;5119730;28;19964;-61
2022/07/05 01:17:10;;;;;;;;;;;;;;;27.17;93.18;97992.56;5122914;28;19923;-61
2022/07/05 01:19:37;;;;;;;;;;;;;;;27.18;93.81;97985.91;5122994;28;19924;-60
2022/07/05 01:22:07;;;;;;;;;;;;;;;27.09;94.77;97990.88;5129289;27;19951;-60
2022/07/05 01:24:35;;;;;;;;;;;;;;;27.14;94.02;97979.59;5119245;28;20003;-60
2022/07/05 01:27:02;;;;;;;;;;;;;;;27.10;95.03;97976.81;5122373;28;19963;-60
2022/07/05 01:29:28;;;;;;;;;;;;;;;27.12;94.49;97984.66;5122577;28;19964;-61
2022/07/05 01:31:54;;;;;;;;;;;;;;;27.13;94.12;97972.53;5120287;28;19924;-61
2022/07/05 01:34:21;;;;;;;;;;;;;;;27.13;94.39;97969.78;5118859;28;19966;-60
2022/07/05 01:36:47;;;;;;;;;;;;;;;27.10;94.53;97981.50;5119963;28;20014;-62
2022/07/05 01:39:14;;;;;;;;;;;;;;;27.07;94.62;97979.50;5122341;28;19962;-61
2022/07/05 01:41:41;;;;;;;;;;;;;;;27.12;93.43;97979.16;5122217;28;19923;-60
2022/07/05 01:44:08;;;;;;;;;;;;;;;27.15;93.25;97975.69;5118800;28;19987;-60
2022/07/05 01:46:37;;;;;;;;;;;;;;;27.21;92.69;97968.72;5118922;28;19931;-61
2022/07/05 01:49:05;;;;;;;;;;;;;;;27.17;92.80;97965.94;5118637;28;19935;-61
2022/07/05 01:51:34;;;;;;;;;;;;;;;27.19;92.62;97973.78;5131104;27;19930;-61
2022/07/05 01:54:00;;;;;;;;;;;;;;;27.13;93.32;97983.50;5119242;28;20284;-61
2022/07/05 01:56:26;;;;;;;;;;;;;;;27.19;92.20;97984.75;5118873;28;20014;-61
2022/07/05 01:58:55;;;;;;;;;;;;;;;27.04;93.25;97983.78;5120595;28;19999;-61
2022/07/05 02:01:32;;;;;;;;;;;;;;;27.08;92.91;97986.56;5103806;28;20014;-60
2022/07/05 02:03:59;;;;;;;;;;;;;;;27.02;93.11;97990.78;5118724;28;19938;-61
2022/07/05 02:06:25;;;;;;;;;;;;;;;27.07;91.97;97999.47;5118259;28;19995;-61
2022/07/05 02:08:52;;;;;;;;;;;;;;;26.99;91.16;97992.28;5120380;28;19930;-61
2022/07/05 02:11:18;;;;;;;;;;;;;;;26.93;90.38;97984.75;5121930;28;19995;-60
2022/07/05 02:13:44;;;;;;;;;;;;;;;26.89;88.79;97986.66;5121156;28;19967;-60
2022/07/05 02:16:12;;;;;;;;;;;;;;;26.93;88.14;97987.47;5118357;28;19924;-60
2022/07/05 02:18:39;;;;;;;;;;;;;;;26.94;86.31;97991.81;5118547;28;19931;-60
2022/07/05 02:21:06;;;;;;;;;;;;;;;26.86;86.55;97995.63;5123863;27;19923;-61
2022/07/05 02:23:32;;;;;;;;;;;;;;;27.00;85.02;97990.34;5122005;28;20018;-61
2022/07/05 02:25:59;;;;;;;;;;;;;;;26.78;84.84;97998.19;5118992;28;19928;-60
2022/07/05 02:28:25;;;;;;;;;;;;;;;26.73;83.66;97993.03;5118285;28;19924;-61
2022/07/05 02:30:52;;;;;;;;;;;;;;;26.85;81.04;97996.75;5120059;28;19920;-61
2022/07/05 02:33:19;;;;;;;;;;;;;;;26.81;78.50;97992.00;5121737;28;19959;-60
2022/07/05 02:35:46;;;;;;;;;;;;;;;26.82;76.74;98001.03;5120721;28;19988;-61
2022/07/05 02:38:12;;;;;;;;;;;;;;;26.82;75.23;97998.28;5118298;28;19924;-60
2022/07/05 02:40:38;;;;;;;;;;;;;;;26.62;72.85;98005.75;5118421;28;20011;-61
2022/07/05 02:43:05;;;;;;;;;;;;;;;26.81;71.74;98007.66;5109864;28;19924;-60
2022/07/05 02:45:31;;;;;;;;;;;;;;;26.81;70.88;98005.72;5109877;28;19959;-60
2022/07/05 02:47:58;;;;;;;;;;;;;;;26.73;68.59;97995.00;5110009;28;19928;-61
2022/07/05 02:50:25;;;;;;;;;;;;;;;26.74;67.99;98002.81;5115664;28;19952;-61
2022/07/05 02:52:52;;;;;;;;;;;;;;;26.69;66.80;98005.88;5123357;28;19920;-60
2022/07/05 02:55:18;;;;;;;;;;;;;;;26.72;65.80;98004.34;5121635;28;19923;-61
2022/07/05 02:57:44;;;;;;;;;;;;;;;26.68;64.26;98008.97;5121517;28;19924;-61
2022/07/05 03:00:11;;;;;;;;;;;;;;;26.71;63.69;98005.50;5124410;28;19928;-60
2022/07/05 03:02:38;;;;;;;;;;;;;;;26.74;62.98;98013.00;5117867;28;19924;-61
2022/07/05 03:05:04;;;;;;;;;;;;;;;26.78;62.34;98020.13;5117865;28;19935;-61
2022/07/05 03:07:32;;;;;;;;;;;;;;;26.67;61.63;98023.84;5117634;28;19928;-61
2022/07/05 03:09:58;;;;;;;;;;;;;;;26.68;61.07;98030.88;5120431;28;20595;-60
2022/07/05 03:12:25;;;;;;;;;;;;;;;26.72;61.09;98027.06;5121027;28;19924;-61
2022/07/05 03:14:51;;;;;;;;;;;;;;;26.69;60.66;98037.97;5121968;28;19934;-60
2022/07/05 03:17:17;;;;;;;;;;;;;;;26.59;60.43;98033.88;5121673;28;19935;-61
2022/07/05 03:19:44;;;;;;;;;;;;;;;26.56;60.22;98048.31;5122006;28;19923;-61
2022/07/05 03:22:10;;;;;;;;;;;;;;;26.53;60.13;98038.06;5133941;27;19992;-61
2022/07/05 03:24:38;;;;;;;;;;;;;;;26.56;60.14;98048.31;5121374;28;19980;-60
2022/07/05 03:27:04;;;;;;;;;;;;;;;26.57;59.93;98052.63;5121192;28;19953;-60
2022/07/05 03:29:31;;;;;;;;;;;;;;;26.58;59.82;98054.22;5121286;28;19924;-60
2022/07/05 03:31:57;;;;;;;;;;;;;;;26.55;59.79;98057.69;5123766;28;19999;-60
2022/07/05 03:34:23;;;;;;;;;;;;;;;26.53;59.72;98048.25;5124481;28;19926;-60
2022/07/05 03:36:50;;;;;;;;;;;;;;;26.47;59.69;98058.69;5123126;28;19930;-61
2022/07/05 03:39:16;;;;;;;;;;;;;;;26.43;59.43;98049.63;5102813;28;19924;-60
2022/07/05 03:41:44;;;;;;;;;;;;;;;26.48;59.32;98070.44;5121525;28;19931;-60
2022/07/05 03:44:10;;;;;;;;;;;;;;;26.50;59.00;98065.41;5124588;28;19935;-60
2022/07/05 03:46:37;;;;;;;;;;;;;;;26.42;59.04;98067.22;5124575;28;19967;-61
2022/07/05 03:49:03;;;;;;;;;;;;;;;26.21;59.03;98066.81;5123215;28;19951;-60
2022/07/05 03:51:29;;;;;;;;;;;;;;;26.13;59.12;98065.03;5119926;28;19967;-61
2022/07/05 03:53:56;;;;;;;;;;;;;;;26.25;59.03;98078.63;5122175;28;19924;-60
2022/07/05 03:56:23;;;;;;;;;;;;;;;26.35;58.75;98066.28;5121021;28;19936;-60
2022/07/05 03:58:50;;;;;;;;;;;;;;;26.34;58.59;98079.19;5122551;28;19924;-60
2022/07/05 04:01:17;;;;;;;;;;;;;;;26.30;58.72;98076.38;5124660;28;19930;-62
2022/07/05 04:03:43;;;;;;;;;;;;;;;26.27;58.43;98073.59;5123904;28;19974;-61
2022/07/05 04:06:10;;;;;;;;;;;;;;;26.32;58.16;98072.50;5120699;28;19999;-61
2022/07/05 04:08:36;;;;;;;;;;;;;;;26.16;57.77;98078.03;5120594;28;19925;-60
2022/07/05 04:11:03;;;;;;;;;;;;;;;25.75;59.11;98080.28;5123908;28;19924;-61
2022/07/05 04:13:29;;;;;;;;;;;;;;;25.89;59.94;98077.09;5124159;28;19924;-60
2022/07/05 04:15:57;;;;;;;;;;;;;;;25.75;59.81;98071.28;5121831;28;19927;-60
2022/07/05 04:18:23;;;;;;;;;;;;;;;25.65;60.11;98083.63;5120676;28;19959;-61
2022/07/05 04:20:50;;;;;;;;;;;;;;;25.24;61.09;98075.97;5132399;27;19959;-61
2022/07/05 04:23:16;;;;;;;;;;;;;;;24.66;64.10;98080.34;5124072;28;19965;-60
2022/07/05 04:25:42;;;;;;;;;;;;;;;25.11;64.53;98080.75;5122911;28;19928;-61
2022/07/05 04:28:09;;;;;;;;;;;;;;;25.20;64.38;98086.03;5120364;28;19981;-61
2022/07/05 04:30:35;;;;;;;;;;;;;;;25.10;63.19;98086.56;5120432;28;19935;-60
2022/07/05 04:33:03;;;;;;;;;;;;;;;25.44;63.49;98090.50;5123713;28;19924;-61
2022/07/05 04:35:29;;;;;;;;;;;;;;;25.66;62.54;98096.13;5123654;28;19938;-61
2022/07/05 04:37:55;;;;;;;;;;;;;;;25.76;61.84;98100.25;5121361;28;19934;-61
2022/07/05 04:40:22;;;;;;;;;;;;;;;25.71;61.55;98098.59;5120042;28;20490;-61
2022/07/05 04:42:48;;;;;;;;;;;;;;;25.55;62.17;98099.78;5121243;28;19979;-60
2022/07/05 04:45:15;;;;;;;;;;;;;;;25.34;62.58;98101.97;5123384;28;19924;-60
2022/07/05 04:47:41;;;;;;;;;;;;;;;25.34;63.76;98101.97;5123165;28;19931;-61
2022/07/05 04:50:09;;;;;;;;;;;;;;;25.37;64.01;98099.34;5121269;27;19962;-60
2022/07/05 04:52:36;;;;;;;;;;;;;;;25.55;63.46;98103.31;5127946;27;19991;-61
2022/07/05 04:55:02;;;;;;;;;;;;;;;25.45;62.40;98101.06;5123111;28;20007;-61
2022/07/05 04:57:36;;;;;;;;;;;;;;;25.29;63.20;98102.22;5123358;28;19927;-60
2022/07/05 05:00:03;;;;;;;;;;;;;;;24.89;65.34;98105.94;5119827;28;19928;-61
2022/07/05 05:02:29;;;;;;;;;;;;;;;24.83;66.85;98109.28;5124896;28;20177;-61
2022/07/05 05:04:55;;;;;;;;;;;;;;;25.16;65.85;98105.06;5122917;28;19959;-60
2022/07/05 05:07:23;;;;;;;;;;;;;;;24.81;66.44;98103.38;5122689;28;19935;-60
2022/07/05 05:09:49;;;;;;;;;;;;;;;25.27;65.81;98110.81;5121438;28;19931;-60
2022/07/05 05:12:16;;;;;;;;;;;;;;;25.50;64.50;98103.56;5119328;28;19985;-60
2022/07/05 05:14:42;;;;;;;;;;;;;;;25.44;63.96;98099.47;5119699;28;19949;-61
2022/07/05 05:17:08;;;;;;;;;;;;;;;25.39;64.88;98113.44;5122441;28;19924;-61
2022/07/05 05:19:35;;;;;;;;;;;;;;;25.48;64.48;98105.84;5122702;28;19923;-60
2022/07/05 05:22:01;;;;;;;;;;;;;;;25.53;63.76;98119.25;5129960;27;19962;-63
2022/07/05 05:24:29;;;;;;;;;;;;;;;25.54;64.02;98120.06;5119044;28;19953;-61
2022/07/05 05:26:55;;;;;;;;;;;;;;;25.34;64.58;98119.19;5121352;28;19924;-61
2022/07/05 05:29:22;;;;;;;;;;;;;;;25.32;65.19;98118.72;5122795;28;19938;-60
2022/07/05 05:31:48;;;;;;;;;;;;;;;25.18;66.38;98118.41;5121049;28;19954;-61
2022/07/05 05:34:14;;;;;;;;;;;;;;;25.09;67.29;98112.31;5129509;28;19970;-60
2022/07/05 05:36:41;;;;;;;;;;;;;;;25.36;66.68;98116.09;5121963;28;19951;-61
2022/07/05 05:39:07;;;;;;;;;;;;;;;25.66;65.36;98118.00;5118216;28;19924;-60
2022/07/05 05:41:35;;;;;;;;;;;;;;;25.80;64.87;98114.00;5118813;28;19920;-60
2022/07/05 05:44:02;;;;;;;;;;;;;;;25.90;64.17;98122.47;5121736;28;19928;-62
2022/07/05 05:46:28;;;;;;;;;;;;;;;26.22;63.11;98106.72;5122115;28;19931;-60
2022/07/05 05:48:54;;;;;;;;;;;;;;;26.06;63.65;98114.16;5119914;28;19962;-60
2022/07/05 05:51:21;;;;;;;;;;;;;;;26.25;62.88;98114.22;5129604;27;19953;-61
2022/07/05 05:53:47;;;;;;;;;;;;;;;26.44;62.14;98113.41;5121173;28;19920;-62
2022/07/05 05:56:13;;;;;;;;;;;;;;;26.70;61.60;98108.06;5118657;28;19935;-61
2022/07/05 05:58:41;;;;;;;;;;;;;;;26.69;61.34;98123.69;5118618;28;19965;-65
2022/07/05 06:01:08;;;;;;;;;;;;;;;26.84;61.23;98113.81;5121889;28;19935;-61
2022/07/05 06:03:34;;;;;;;;;;;;;;;26.73;61.26;98115.53;5121975;28;19934;-61
2022/07/05 06:06:00;;;;;;;;;;;;;;;26.78;61.60;98112.50;5118900;28;20011;-60
2022/07/05 06:08:27;;;;;;;;;;;;;;;26.99;61.37;98120.31;5117913;28;19931;-60
2022/07/05 06:10:53;;;;;;;;;;;;;;;27.19;60.67;98127.34;5120161;28;19935;-60
2022/07/05 06:13:19;;;;;;;;;;;;;;;26.98;60.67;98126.97;5121839;28;19992;-60
2022/07/05 06:15:47;;;;;;;;;;;;;;;27.05;60.56;98127.88;5120716;28;20002;-61
2022/07/05 06:18:13;;;;;;;;;;;;;;;27.27;60.66;98129.81;5117997;28;19951;-61
2022/07/05 06:20:40;;;;;;;;;;;;;;;27.54;60.09;98127.16;5128569;27;19923;-61
2022/07/05 06:23:07;;;;;;;;;;;;;;;27.57;60.05;98138.19;5121111;28;19977;-60
2022/07/05 06:25:33;;;;;;;;;;;;;;;27.73;59.23;98136.03;5121414;28;19928;-61
2022/07/05 06:28:01;;;;;;;;;;;;;;;27.63;59.34;98131.22;5118468;28;19967;-61
2022/07/05 06:30:28;;;;;;;;;;;;;;;27.44;60.15;98136.78;5117832;28;19931;-61
2022/07/05 06:32:55;;;;;;;;;;;;;;;27.49;59.88;98130.97;5119796;28;19927;-60
2022/07/05 06:35:22;;;;;;;;;;;;;;;27.53;59.99;98137.31;5121038;28;19927;-60
2022/07/05 06:37:51;;;;;;;;;;;;;;;27.43;60.78;98132.47;5119958;28;19923;-60
2022/07/05 06:40:18;;;;;;;;;;;;;;;27.73;60.47;98140.78;5099710;28;19977;-60
2022/07/05 06:42:45;;;;;;;;;;;;;;;28.04;60.13;98134.16;5118477;28;19963;-61
2022/07/05 06:45:11;;;;;;;;;;;;;;;28.20;59.59;98138.28;5103111;28;19930;-61
2022/07/05 06:47:38;;;;;;;;;;;;;;;28.36;59.23;98136.16;5121437;28;19951;-61
2022/07/05 06:50:06;;;;;;;;;;;;;;;28.35;58.45;98136.50;5120885;27;19920;-61
2022/07/05 06:52:33;;;;;;;;;;;;;;;28.06;59.09;98132.63;5130997;27;19930;-61
2022/07/05 06:54:59;;;;;;;;;;;;;;;28.20;59.41;98137.50;5124809;28;19927;-60
2022/07/05 06:57:26;;;;;;;;;;;;;;;28.30;59.33;98136.84;5125434;28;20000;-61
2022/07/05 06:59:52;;;;;;;;;;;;;;;28.40;59.25;98142.50;5123223;28;19926;-61
2022/07/05 07:02:19;;;;;;;;;;;;;;;28.52;58.94;98135.94;5121661;28;19924;-61
2022/07/05 07:04:46;;;;;;;;;;;;;;;28.68;58.66;98144.81;5122415;28;19924;-60
2022/07/05 07:09:56;;;;;;;;;;;;;;;28.76;58.24;98154.69;5122110;28;19932;-61
2022/07/05 07:12:23;;;;;;;;;;;;;;;28.85;58.26;98148.88;5121483;28;19955;-61
2022/07/05 07:14:49;;;;;;;;;;;;;;;28.69;58.39;98146.34;5122669;28;19924;-61
2022/07/05 07:17:15;;;;;;;;;;;;;;;28.46;58.81;98153.13;5125022;28;19924;-61
2022/07/05 07:19:42;;;;;;;;;;;;;;;27.68;60.39;98157.53;5106297;28;19931;-61
2022/07/05 07:22:08;;;;;;;;;;;;;;;27.26;61.59;98163.91;5131786;27;19928;-61
2022/07/05 07:24:36;;;;;;;;;;;;;;;27.16;62.58;98155.50;5121212;28;19943;-60
2022/07/05 07:27:06;;;;;;;;;;;;;;;26.80;64.43;98160.31;5124513;28;19920;-60
2022/07/05 07:29:33;;;;;;;;;;;;;;;26.62;65.56;98147.41;5124819;28;19920;-61
2022/07/05 07:31:59;;;;;;;;;;;;;;;25.98;70.15;98154.28;5122075;28;19927;-60
2022/07/05 07:34:26;;;;;;;;;;;;;;;26.23;72.84;98158.38;5121133;28;19928;-61
2022/07/05 07:36:53;;;;;;;;;;;;;;;27.43;68.04;98151.66;5122835;28;20185;-60
2022/07/05 07:39:19;;;;;;;;;;;;;;;27.92;65.18;98159.06;5124633;28;19923;-61
2022/07/05 07:41:47;;;;;;;;;;;;;;;28.37;63.56;98158.91;5123891;28;19927;-60
2022/07/05 07:44:14;;;;;;;;;;;;;;;28.19;63.32;98153.22;5121283;28;19966;-61
2022/07/05 07:46:40;;;;;;;;;;;;;;;28.27;62.08;98154.88;5121070;28;19967;-60
2022/07/05 07:49:07;;;;;;;;;;;;;;;28.29;62.43;98144.28;5124414;28;19924;-61
2022/07/05 07:51:34;;;;;;;;;;;;;;;28.56;61.60;98150.53;5134842;27;19924;-61
2022/07/05 07:54:00;;;;;;;;;;;;;;;28.82;59.37;98152.38;5121609;28;19928;-61
2022/07/05 07:56:26;;;;;;;;;;;;;;;28.92;60.31;98151.72;5120871;28;19924;-60
2022/07/05 07:58:54;;;;;;;;;;;;;;;28.55;58.11;98159.94;5122585;28;19931;-61
2022/07/05 08:01:21;;;;;;;;;;;;;;;29.08;58.79;98143.22;5122931;28;19966;-62
2022/07/05 08:03:47;;;;;;;;;;;;;;;29.31;58.03;98146.59;5123305;28;19935;-61
2022/07/05 08:06:15;;;;;;;;;;;;;;;29.51;57.11;98144.41;5120446;28;19987;-60
2022/07/05 08:08:43;;;;;;;;;;;;;;;28.74;56.84;98154.28;5120857;28;19927;-61
2022/07/05 08:11:10;;;;;;;;;;;;;;;28.11;57.01;98153.47;5124208;28;19924;-62
2022/07/05 08:13:36;;;;;;;;;;;;;;;28.57;58.88;98145.78;5124236;28;19966;-61
2022/07/05 08:16:04;;;;;;;;;;;;;;;28.16;57.18;98153.16;5120800;28;19955;-60
2022/07/05 08:21:35;;;;;;;;;;;;;;;29.33;57.43;98145.06;5130535;27;19927;-61
2022/07/05 08:24:02;;;;;;;;;;;;;;;29.42;54.97;98140.03;5120844;28;19924;-61
2022/07/05 08:26:30;;;;;;;;;;;;;;;29.41;56.68;98141.19;5120303;28;19935;-60
2022/07/05 08:28:58;;;;;;;;;;;;;;;29.64;55.26;98148.44;5122414;28;19928;-61
2022/07/05 08:31:26;;;;;;;;;;;;;;;29.14;54.35;98141.72;5123763;28;19978;-62
2022/07/05 08:33:52;;;;;;;;;;;;;;;28.75;55.37;98144.09;5121790;28;19924;-61
2022/07/05 08:36:19;;;;;;;;;;;;;;;29.28;56.55;98141.84;5119910;28;19988;-61
2022/07/05 08:38:45;;;;;;;;;;;;;;;29.84;54.92;98136.00;5120680;28;19988;-61
2022/07/05 08:41:12;;;;;;;;;;;;;;;30.18;53.64;98128.31;5123370;28;20047;-61
2022/07/05 08:43:41;;;;;;;;;;;;;;;30.32;53.26;98126.44;5123479;28;20127;-60
2022/07/05 08:46:10;;;;;;;;;;;;;;;30.18;53.04;98131.06;5119714;28;19927;-60
2022/07/05 08:48:42;;;;;;;;;;;;;;;29.49;51.97;98131.03;5120178;28;19991;-60
2022/07/05 08:51:11;;;;;;;;;;;;;;;29.55;53.17;98134.22;5126109;27;19923;-61
2022/07/05 08:53:38;;;;;;;;;;;;;;;29.75;53.92;98122.56;5123643;28;20566;-61
2022/07/05 08:56:05;;;;;;;;;;;;;;;30.01;53.70;98129.03;5120007;28;19925;-60
2022/07/05 08:58:31;;;;;;;;;;;;;;;30.28;52.75;98130.34;5119727;28;19935;-61
2022/07/05 09:00:58;;;;;;;;;;;;;;;30.46;51.96;98133.97;5122036;28;19988;-62
2022/07/05 09:03:26;;;;;;;;;;;;;;;30.47;51.12;98135.56;5123270;28;19953;-62
2022/07/05 09:05:56;;;;;;;;;;;;;;;29.58;51.03;98137.00;5121201;28;19920;-61
2022/07/05 09:08:22;;;;;;;;;;;;;;;29.34;49.89;98132.06;5119435;28;19920;-60
2022/07/05 09:10:50;;;;;;;;;;;;;;;29.23;50.81;98122.94;5120841;28;19962;-61
2022/07/05 09:13:16;;;;;;;;;;;;;;;29.69;51.91;98124.09;5122768;28;19973;-61
2022/07/05 09:15:43;;;;;;;;;;;;;;;30.06;51.81;98121.19;5122494;28;19927;-60
2022/07/05 09:18:11;;;;;;;;;;;;;;;29.72;51.17;98128.03;5118751;28;21273;-59
2022/07/05 09:20:37;;;;;;;;;;;;;;;29.84;51.75;98131.28;5129144;27;19990;-61
2022/07/05 09:23:05;;;;;;;;;;;;;;;29.62;52.45;98132.28;5122737;28;19924;-60
2022/07/05 09:25:32;;;;;;;;;;;;;;;29.31;50.87;98136.38;5122532;28;20559;-60
2022/07/05 09:27:59;;;;;;;;;;;;;;;29.48;52.13;98129.44;5120065;28;19930;-61
2022/07/05 09:30:28;;;;;;;;;;;;;;;29.15;52.31;98127.59;5119156;28;20094;-62
2022/07/05 09:33:01;;;;;;;;;;;;;;;29.81;51.44;98126.53;5121065;28;19928;-61
2022/07/05 09:35:28;;;;;;;;;;;;;;;30.30;50.13;98128.75;5122975;28;19924;-62
2022/07/05 09:37:54;;;;;;;;;;;;;;;30.38;49.89;98129.59;5120682;28;19923;-61
2022/07/05 09:40:22;;;;;;;;;;;;;;;30.53;49.45;98122.97;5118977;28;19996;-61
2022/07/05 09:42:48;;;;;;;;;;;;;;;30.46;47.18;98139.50;5120217;28;19974;-62
2022/07/05 09:45:22;;;;;;;;;;;;;;;30.40;49.04;98127.25;5122427;28;19928;-62
2022/07/05 09:47:48;;;;;;;;;;;;;;;30.62;47.58;98128.91;5121319;28;19951;-62
2022/07/05 09:50:14;;;;;;;;;;;;;;;30.08;46.90;98121.59;5122090;27;19920;-61
2022/07/05 09:52:42;;;;;;;;;;;;;;;29.86;47.01;98128.97;5125963;27;19959;-63
2022/07/05 09:55:09;;;;;;;;;;;;;;;29.80;44.71;98119.44;5122443;28;19924;-62
2022/07/05 09:57:38;;;;;;;;;;;;;;;29.22;45.95;98132.34;5122364;28;19951;-62
2022/07/05 10:00:06;;;;;;;;;;;;;;;29.03;47.11;98135.34;5118747;28;19928;-61
2022/07/05 10:02:36;;;;;;;;;;;;;;;29.24;47.12;98132.78;5118723;28;19959;-62
2022/07/05 10:05:08;;;;;;;;;;;;;;;29.84;47.03;98125.78;5121973;28;19928;-63
2022/07/05 10:07:36;;;;;;;;;;;;;;;30.35;46.06;98120.16;5121988;28;19959;-62
2022/07/05 10:10:02;;;;;;;;;;;;;;;30.01;43.15;98129.03;5119153;28;20006;-61
2022/07/05 10:12:29;;;;;;;;;;;;;;;29.72;45.73;98133.53;5118819;28;19977;-62
2022/07/05 10:14:58;;;;;;;;;;;;;;;29.78;45.10;98132.78;5120595;28;19964;-62
2022/07/05 10:17:25;;;;;;;;;;;;;;;30.07;45.65;98127.47;5122206;28;19923;-61
2022/07/05 10:19:52;;;;;;;;;;;;;;;29.81;44.79;98122.97;5120532;28;19959;-61
2022/07/05 10:22:18;;;;;;;;;;;;;;;29.40;43.78;98125.84;5128869;27;19935;-61
2022/07/05 10:24:45;;;;;;;;;;;;;;;29.18;44.67;98131.53;5118719;28;19924;-62
2022/07/05 10:27:13;;;;;;;;;;;;;;;29.79;44.32;98128.88;5121944;28;19959;-60
2022/07/05 10:29:40;;;;;;;;;;;;;;;29.79;44.10;98128.88;5121929;28;19923;-61
2022/07/05 10:32:10;;;;;;;;;;;;;;;30.22;44.56;98118.91;5110034;28;19924;-61
2022/07/05 10:34:38;;;;;;;;;;;;;;;30.07;43.96;98116.47;5110010;28;19920;-61
2022/07/05 10:37:05;;;;;;;;;;;;;;;30.49;43.73;98122.16;5109718;28;19987;-63
2022/07/05 10:39:31;;;;;;;;;;;;;;;30.25;43.04;98117.34;5109918;28;20015;-61
2022/07/05 10:41:58;;;;;;;;;;;;;;;29.80;41.97;98121.41;5109813;28;19935;-62
2022/07/05 10:44:30;;;;;;;;;;;;;;;29.66;44.21;98124.84;5109640;28;19943;-61
2022/07/05 10:47:10;;;;;;;;;;;;;;;29.84;44.02;98125.00;5121606;28;19924;-62
2022/07/05 10:49:36;;;;;;;;;;;;;;;29.39;43.50;98121.53;5121764;28;19924;-61
2022/07/05 10:52:03;;;;;;;;;;;;;;;29.83;44.99;98113.19;5129135;27;19935;-61
2022/07/05 10:54:29;;;;;;;;;;;;;;;29.97;43.16;98118.00;5118220;28;19967;-61
2022/07/05 10:57:14;;;;;;;;;;;;;;;30.31;44.11;98104.75;5120241;28;19930;-61
2022/07/05 10:59:55;;;;;;;;;;;;;;;30.42;43.27;98120.19;5121698;28;20007;-61
2022/07/05 11:02:23;;;;;;;;;;;;;;;30.75;41.49;98110.84;5117283;28;20456;-61
2022/07/05 11:04:55;;;;;;;;;;;;;;;30.82;41.21;98108.09;5119287;28;19924;-61
2022/07/05 11:07:37;;;;;;;;;;;;;;;30.38;41.37;98115.81;5121261;28;19959;-62
2022/07/05 11:10:05;;;;;;;;;;;;;;;30.73;40.22;98101.38;5118806;28;19935;-61
2022/07/05 11:12:36;;;;;;;;;;;;;;;30.61;40.20;98108.03;5118069;28;19974;-61
2022/07/05 11:15:08;;;;;;;;;;;;;;;30.63;40.69;98100.19;5121162;28;19926;-62
2022/07/05 11:17:36;;;;;;;;;;;;;;;30.56;39.76;98104.88;5121599;28;19924;-61
2022/07/05 11:20:11;;;;;;;;;;;;;;;30.57;41.78;98109.22;5118488;28;19966;-60
2022/07/05 11:22:37;;;;;;;;;;;;;;;30.47;39.15;98105.25;5117975;28;19924;-61
2022/07/05 11:25:05;;;;;;;;;;;;;;;30.05;39.05;98102.31;5121118;28;19924;-61
2022/07/05 11:27:32;;;;;;;;;;;;;;;30.32;41.37;98095.31;5121449;28;19934;-61
2022/07/05 11:29:58;;;;;;;;;;;;;;;30.55;40.38;98097.81;5119104;28;19984;-61
2022/07/05 11:32:36;;;;;;;;;;;;;;;30.48;37.89;98093.06;5118117;28;19924;-61
2022/07/05 11:35:15;;;;;;;;;;;;;;;30.31;40.28;98093.75;5122158;28;19919;-61
2022/07/05 11:37:58;;;;;;;;;;;;;;;30.51;39.25;98089.50;5125292;28;19923;-61
2022/07/05 11:40:28;;;;;;;;;;;;;;;30.40;38.90;98102.47;5121404;28;20003;-61
2022/07/05 11:42:54;;;;;;;;;;;;;;;30.44;39.29;98093.03;5123228;28;19935;-61
2022/07/05 11:45:21;;;;;;;;;;;;;;;30.39;40.18;98098.16;5124957;28;19924;-63
2022/07/05 11:47:47;;;;;;;;;;;;;;;30.07;37.74;98088.91;5123832;28;19984;-62
2022/07/05 11:50:15;;;;;;;;;;;;;;;29.81;38.35;98098.19;5124048;27;19924;-60
2022/07/05 11:52:42;;;;;;;;;;;;;;;29.74;39.86;98079.66;5128128;27;19950;-60
2022/07/05 11:55:09;;;;;;;;;;;;;;;29.78;37.45;98077.72;5124650;28;19919;-61
2022/07/05 11:57:36;;;;;;;;;;;;;;;29.94;39.31;98069.19;5124908;28;19923;-62
2022/07/05 12:00:03;;;;;;;;;;;;;;;29.93;37.02;98076.66;5121702;28;19996;-62
2022/07/05 12:02:30;;;;;;;;;;;;;;;29.90;36.43;98073.88;5121004;28;19959;-62
2022/07/05 12:04:57;;;;;;;;;;;;;;;29.83;38.75;98073.88;5123471;28;19970;-61
2022/07/05 12:07:29;;;;;;;;;;;;;;;30.09;37.12;98068.06;5124274;28;19928;-62
2022/07/05 12:12:43;;;;;;;;;;;;;;;30.27;38.83;98070.88;5120908;28;19920;-61
2022/07/05 12:15:10;;;;;;;;;;;;;;;30.05;37.24;98074.75;5120989;28;19920;-63
2022/07/05 12:17:37;;;;;;;;;;;;;;;30.03;36.76;98072.38;5121031;28;19935;-64
2022/07/05 12:20:04;;;;;;;;;;;;;;;30.18;37.82;98067.72;5124115;27;19955;-63
2022/07/05 12:22:32;;;;;;;;;;;;;;;30.10;36.03;98058.66;5130913;27;19951;-64
2022/07/05 12:24:59;;;;;;;;;;;;;;;29.95;37.33;98071.56;5123483;28;19950;-63
2022/07/05 12:27:26;;;;;;;;;;;;;;;30.22;37.76;98061.06;5124314;28;19924;-62
2022/07/05 12:29:52;;;;;;;;;;;;;;;30.32;37.31;98065.81;5122644;28;19920;-64
2022/07/05 12:32:18;;;;;;;;;;;;;;;30.37;37.58;98064.63;5120337;28;19983;-63
2022/07/05 12:34:45;;;;;;;;;;;;;;;30.34;37.83;98063.44;5121138;28;19931;-64
2022/07/05 12:37:11;;;;;;;;;;;;;;;30.18;37.17;98064.94;5124160;28;19928;-68
2022/07/05 12:39:39;;;;;;;;;;;;;;;29.95;37.69;98076.28;5123631;28;19963;-63
2022/07/05 12:42:05;;;;;;;;;;;;;;;29.93;34.56;98073.91;5120288;28;19924;-63
2022/07/05 12:44:32;;;;;;;;;;;;;;;29.83;34.03;98066.38;5120405;28;19935;-63
2022/07/05 12:47:04;;;;;;;;;;;;;;;29.94;35.82;98071.94;5121963;28;19955;-62
2022/07/05 12:49:32;;;;;;;;;;;;;;;30.13;36.17;98065.34;5123645;28;19930;-64
2022/07/05 12:52:04;;;;;;;;;;;;;;;30.30;35.71;98064.59;5131679;27;19924;-65
2022/07/05 13:00:01;;;;;;;;;;;;;;;30.74;34.04;98069.84;5122647;28;19928;-65
2022/07/05 13:02:34;;;;;;;;;;;;;;;30.83;34.94;98057.25;5123195;28;20646;-64